Time;durP1;ratioP1;P1;durP2;ratioP2;P2;SDS_P1;SDS_P2;PMS_P1;PMS_P2;Temp;Humidity;BMP_temperature;BMP_pressure;BME280_temperature;BME280_humidity;BME280_pressure;Samples;Min_cycle;Max_cycle;Signal;HPM_P1;HPM_P2
2023/06/18 00:02:24;;;;;;;2.80;2.70;;;23.20;63.60;;;;;;5082219;28;43610;-68
2023/06/18 00:04:53;;;;;;;3.00;3.00;;;23.10;64.20;;;;;;5083459;28;43348;-68
2023/06/18 00:07:21;;;;;;;2.83;2.83;;;23.10;63.90;;;;;;5083220;28;44074;-68
2023/06/18 00:09:49;;;;;;;2.80;2.80;;;23.10;63.50;;;;;;5081942;28;43526;-68
2023/06/18 00:12:18;;;;;;;2.83;2.83;;;23.10;63.80;;;;;;5086362;28;43623;-68
2023/06/18 00:14:46;;;;;;;3.10;3.10;;;23.10;64.20;;;;;;5086099;28;43482;-68
2023/06/18 00:17:15;;;;;;;2.97;2.97;;;23.10;64.40;;;;;;5081745;28;43499;-69
2023/06/18 00:19:43;;;;;;;2.73;2.73;;;23.10;64.10;;;;;;5086181;28;43459;-68
2023/06/18 00:22:14;;;;;;;3.00;2.90;;;23.30;64.00;;;;;;5080836;28;43627;-68
2023/06/18 00:24:42;;;;;;;2.67;2.67;;;23.30;63.40;;;;;;5084964;28;44008;-68
2023/06/18 00:27:10;;;;;;;3.20;3.20;;;23.40;62.90;;;;;;5080939;28;43554;-68
2023/06/18 00:29:46;;;;;;;2.80;2.80;;;23.40;62.70;;;;;;5113936;27;43389;-68
2023/06/18 00:32:14;;;;;;;3.40;3.30;;;23.30;62.50;;;;;;5087472;28;43731;-68
2023/06/18 00:34:42;;;;;;;2.87;2.87;;;23.30;63.40;;;;;;5085013;28;43402;-68
2023/06/18 00:37:11;;;;;;;3.20;3.10;;;23.20;63.40;;;;;;5087020;28;44035;-68
2023/06/18 00:39:39;;;;;;;3.00;3.00;;;23.20;63.20;;;;;;5089306;28;43415;-68
2023/06/18 00:42:10;;;;;;;2.90;2.90;;;23.20;63.20;;;;;;5086057;28;43754;-68
2023/06/18 00:44:40;;;;;;;2.80;2.80;;;23.20;63.40;;;;;;5088759;28;43445;-68
2023/06/18 00:47:11;;;;;;;2.70;2.70;;;23.10;64.10;;;;;;5088120;28;43414;-68
2023/06/18 00:49:41;;;;;;;3.07;2.97;;;23.10;63.80;;;;;;5088049;28;43537;-68
2023/06/18 00:52:12;;;;;;;2.80;2.80;;;23.10;63.50;;;;;;5085492;28;46237;-67
2023/06/18 00:54:41;;;;;;;3.03;2.97;;;23.10;63.50;;;;;;5087669;28;43486;-68
2023/06/18 00:57:09;;;;;;;3.10;3.10;;;23.10;63.70;;;;;;5088107;28;43430;-67
2023/06/18 00:59:38;;;;;;;3.30;3.20;;;23.10;64.40;;;;;;5083869;28;43573;-67
2023/06/18 01:02:08;;;;;;;3.00;3.00;;;23.10;64.30;;;;;;5086371;28;44791;-67
2023/06/18 01:04:37;;;;;;;3.00;3.00;;;23.20;63.90;;;;;;5089128;28;43384;-68
2023/06/18 01:07:13;;;;;;;2.83;2.83;;;23.30;63.70;;;;;;5088612;28;43450;-67
2023/06/18 01:09:53;;;;;;;2.90;2.90;;;23.40;62.90;;;;;;5089959;28;43361;-68
2023/06/18 01:12:21;;;;;;;3.27;3.17;;;23.50;62.50;;;;;;5089385;28;43859;-68
2023/06/18 01:14:51;;;;;;;3.10;3.00;;;23.40;62.50;;;;;;5089249;28;43429;-68
2023/06/18 01:17:21;;;;;;;2.97;2.97;;;23.40;62.70;;;;;;5121864;27;43404;-68
2023/06/18 01:19:51;;;;;;;2.87;2.87;;;23.30;63.20;;;;;;5089914;28;43454;-67
2023/06/18 01:22:26;;;;;;;3.27;3.17;;;23.30;63.00;;;;;;5082883;28;43774;-67
2023/06/18 01:24:56;;;;;;;3.23;3.20;;;23.30;62.70;;;;;;5088194;28;43375;-67
2023/06/18 01:27:25;;;;;;;2.90;2.90;;;23.20;62.80;;;;;;5088681;28;43515;-67
2023/06/18 01:29:53;;;;;;;2.93;2.93;;;23.20;63.50;;;;;;5088133;28;43442;-69
2023/06/18 01:32:22;;;;;;;2.87;2.80;;;23.10;63.70;;;;;;5088026;28;43844;-67
2023/06/18 01:34:57;;;;;;;2.83;2.83;;;23.20;63.20;;;;;;5083458;28;44996;-68
2023/06/18 01:37:33;;;;;;;2.77;2.77;;;23.10;63.20;;;;;;5088644;28;43401;-68
2023/06/18 01:40:08;;;;;;;3.23;3.13;;;23.10;63.90;;;;;;5088442;28;43431;-69
2023/06/18 01:42:38;;;;;;;2.60;2.60;;;23.10;64.00;;;;;;5086579;28;43597;-68
2023/06/18 01:45:08;;;;;;;2.70;2.70;;;23.10;63.40;;;;;;5088176;28;43444;-69
2023/06/18 01:47:37;;;;;;;2.87;2.77;;;23.10;63.10;;;;;;5088531;28;43842;-68
2023/06/18 01:50:06;;;;;;;3.00;2.90;;;23.10;63.60;;;;;;5087609;28;43490;-69
2023/06/18 01:52:35;;;;;;;2.97;2.97;;;23.00;64.20;;;;;;5088331;28;43701;-69
2023/06/18 01:55:03;;;;;;;2.60;2.60;;;23.10;64.80;;;;;;5088412;28;43516;-68
2023/06/18 01:57:31;;;;;;;2.77;2.77;;;23.20;63.90;;;;;;5087082;28;43371;-68
2023/06/18 02:00:00;;;;;;;2.97;2.87;;;23.30;63.50;;;;;;5088313;28;43412;-67
2023/06/18 02:02:28;;;;;;;3.10;3.00;;;23.40;63.10;;;;;;5088073;28;43689;-68
2023/06/18 02:04:58;;;;;;;3.10;3.00;;;23.50;62.60;;;;;;5086648;28;44644;-69
2023/06/18 02:07:26;;;;;;;3.50;3.40;;;23.40;62.20;;;;;;5080191;28;43957;-68
2023/06/18 02:09:53;;;;;;;3.00;3.00;;;23.40;62.10;;;;;;5082924;28;43402;-68
2023/06/18 02:12:21;;;;;;;2.80;2.80;;;23.40;62.90;;;;;;5079577;28;43619;-68
2023/06/18 02:14:49;;;;;;;3.20;3.10;;;23.30;62.90;;;;;;5084909;28;43956;-68
2023/06/18 02:17:17;;;;;;;3.03;2.93;;;23.30;62.70;;;;;;5086558;28;43404;-68
2023/06/18 02:19:45;;;;;;;3.00;2.90;;;23.30;62.30;;;;;;5086522;28;43461;-68
2023/06/18 02:22:16;;;;;;;2.87;2.87;;;23.20;63.30;;;;;;5084634;28;43610;-68
2023/06/18 02:24:52;;;;;;;2.90;2.90;;;23.20;63.60;;;;;;5083895;28;44421;-68
2023/06/18 02:27:21;;;;;;;3.03;2.93;;;23.20;63.00;;;;;;5084240;28;43491;-68
2023/06/18 02:29:49;;;;;;;2.80;2.80;;;23.10;62.60;;;;;;5087378;28;43390;-68
2023/06/18 02:32:17;;;;;;;2.93;2.93;;;23.10;63.50;;;;;;5087107;28;43764;-68
2023/06/18 02:34:45;;;;;;;3.20;3.10;;;23.10;64.00;;;;;;5083138;28;43402;-68
2023/06/18 02:37:14;;;;;;;3.20;3.10;;;23.10;63.40;;;;;;5083448;28;43413;-68
2023/06/18 02:39:43;;;;;;;2.83;2.83;;;23.10;62.90;;;;;;5084197;28;43442;-68
2023/06/18 02:42:12;;;;;;;3.40;3.30;;;23.10;63.30;;;;;;5082436;28;43814;-68
2023/06/18 02:44:42;;;;;;;2.90;2.80;;;23.00;64.00;;;;;;5087784;28;43828;-68
2023/06/18 02:47:10;;;;;;;3.20;3.10;;;23.10;64.10;;;;;;5081299;28;43409;-68
2023/06/18 02:49:38;;;;;;;2.90;2.90;;;23.10;63.90;;;;;;5086020;28;43848;-68
2023/06/18 02:52:07;;;;;;;2.90;2.90;;;23.30;63.70;;;;;;5082518;28;43611;-68
2023/06/18 02:54:35;;;;;;;3.20;3.20;;;23.40;63.10;;;;;;5084287;28;43428;-68
2023/06/18 02:57:05;;;;;;;3.00;3.00;;;23.40;62.50;;;;;;5084040;28;43469;-68
2023/06/18 02:59:33;;;;;;;2.77;2.77;;;23.40;62.30;;;;;;5082540;28;43572;-68
2023/06/18 03:02:04;;;;;;;2.90;2.90;;;23.40;62.10;;;;;;5085060;28;45672;-68
2023/06/18 03:04:32;;;;;;;3.00;3.00;;;23.30;62.70;;;;;;5083499;28;44420;-68
2023/06/18 03:07:00;;;;;;;3.10;3.10;;;23.30;62.80;;;;;;5081748;28;43859;-68
2023/06/18 03:09:28;;;;;;;2.80;2.80;;;23.30;62.90;;;;;;5086124;28;43395;-68
2023/06/18 03:11:57;;;;;;;3.03;3.03;;;23.20;62.80;;;;;;5115070;27;44995;-68
2023/06/18 03:14:26;;;;;;;3.00;3.00;;;23.20;62.60;;;;;;5112902;27;44995;-68
2023/06/18 03:16:56;;;;;;;2.70;2.70;;;23.20;63.80;;;;;;5085455;28;43422;-68
2023/06/18 03:19:25;;;;;;;2.83;2.83;;;23.20;63.60;;;;;;5077917;28;43654;-68
2023/06/18 03:21:53;;;;;;;3.40;3.30;;;23.30;63.40;;;;;;5082107;28;45598;-68
2023/06/18 03:24:21;;;;;;;2.90;2.90;;;23.30;62.50;;;;;;5085710;28;43474;-68
2023/06/18 03:26:51;;;;;;;2.97;2.87;;;23.30;62.50;;;;;;5084086;28;43534;-68
2023/06/18 03:29:20;;;;;;;3.47;3.37;;;23.20;63.00;;;;;;5080903;28;43535;-68
2023/06/18 03:31:50;;;;;;;3.00;3.00;;;23.20;63.00;;;;;;5086490;28;43610;-68
2023/06/18 03:34:20;;;;;;;3.00;3.00;;;23.20;63.00;;;;;;5085373;28;45032;-68
2023/06/18 03:36:49;;;;;;;2.83;2.80;;;23.20;62.80;;;;;;5084478;28;43423;-68
2023/06/18 03:39:20;;;;;;;3.30;3.20;;;23.10;63.30;;;;;;5082861;28;43557;-68
2023/06/18 03:41:48;;;;;;;2.97;2.87;;;23.10;63.60;;;;;;5082691;28;44912;-68
2023/06/18 03:44:15;;;;;;;3.17;3.00;;;23.20;63.60;;;;;;5085706;28;43386;-68
2023/06/18 03:46:44;;;;;;;2.73;2.63;;;23.30;63.00;;;;;;5082994;28;43462;-68
2023/06/18 03:49:14;;;;;;;2.83;2.73;;;23.30;62.70;;;;;;5081459;28;43456;-68
2023/06/18 03:51:42;;;;;;;3.20;3.00;;;23.30;62.70;;;;;;5077476;28;43835;-68
2023/06/18 03:54:10;;;;;;;3.40;3.20;;;23.30;63.40;;;;;;5083744;28;43949;-68
2023/06/18 03:56:38;;;;;;;3.20;3.10;;;23.20;63.00;;;;;;5084187;28;43498;-68
2023/06/18 03:59:08;;;;;;;2.97;2.97;;;23.20;63.10;;;;;;5083304;28;43419;-68
2023/06/18 04:01:38;;;;;;;2.90;2.90;;;23.20;63.30;;;;;;5087656;28;45949;-68
2023/06/18 04:04:07;;;;;;;3.37;3.27;;;23.20;63.50;;;;;;5086442;28;43448;-68
2023/06/18 04:06:39;;;;;;;3.10;3.10;;;23.10;63.80;;;;;;5088031;27;43593;-68
2023/06/18 04:09:07;;;;;;;3.10;3.00;;;23.10;63.60;;;;;;5088411;28;43660;-68
2023/06/18 04:11:38;;;;;;;3.53;3.43;;;23.10;63.70;;;;;;5089592;28;43845;-69
2023/06/18 04:14:06;;;;;;;2.90;2.80;;;23.10;63.80;;;;;;5086921;28;44657;-68
2023/06/18 04:16:34;;;;;;;3.00;3.00;;;23.10;63.90;;;;;;5087825;28;43454;-68
2023/06/18 04:19:03;;;;;;;3.13;3.03;;;23.10;64.10;;;;;;5084777;28;43526;-69
2023/06/18 04:21:34;;;;;;;3.23;3.13;;;23.10;63.80;;;;;;5090388;28;43635;-68
2023/06/18 04:24:05;;;;;;;2.70;2.70;;;23.20;63.60;;;;;;5113085;27;44008;-69
2023/06/18 04:26:33;;;;;;;3.30;3.20;;;23.30;63.30;;;;;;5083302;28;43486;-69
2023/06/18 04:29:02;;;;;;;2.80;2.80;;;23.40;62.60;;;;;;5089854;28;43440;-68
2023/06/18 04:31:30;;;;;;;3.33;3.23;;;23.40;62.40;;;;;;5086383;28;45983;-68
2023/06/18 04:33:58;;;;;;;3.30;3.20;;;23.30;62.40;;;;;;5116652;27;44652;-68
2023/06/18 04:36:27;;;;;;;3.40;3.30;;;23.30;62.70;;;;;;5087132;28;43466;-68
2023/06/18 04:38:55;;;;;;;3.20;3.10;;;23.20;63.10;;;;;;5087695;28;43388;-68
2023/06/18 04:41:25;;;;;;;3.20;3.10;;;23.20;63.20;;;;;;5087221;28;44797;-68
2023/06/18 04:43:54;;;;;;;2.73;2.63;;;23.20;63.50;;;;;;5105594;27;45054;-68
2023/06/18 04:46:22;;;;;;;3.27;3.03;;;23.20;63.70;;;;;;5086751;28;43370;-68
2023/06/18 04:48:50;;;;;;;3.10;3.10;;;23.10;63.90;;;;;;5090301;28;43460;-68
2023/06/18 04:51:18;;;;;;;3.40;3.30;;;23.10;63.80;;;;;;5085520;28;45695;-68
2023/06/18 04:53:47;;;;;;;2.83;2.80;;;23.10;64.00;;;;;;5087183;28;43702;-68
2023/06/18 04:56:15;;;;;;;3.20;3.10;;;23.10;64.20;;;;;;5082790;28;43355;-68
2023/06/18 04:58:45;;;;;;;3.00;3.00;;;23.10;64.30;;;;;;5088217;28;43870;-68
2023/06/18 05:01:16;;;;;;;3.10;3.10;;;23.10;64.00;;;;;;5080189;28;45789;-68
2023/06/18 05:03:44;;;;;;;3.10;3.00;;;23.10;63.90;;;;;;5085089;28;44964;-68
2023/06/18 05:06:13;;;;;;;3.20;3.17;;;23.20;63.70;;;;;;5084257;28;43331;-68
2023/06/18 05:08:41;;;;;;;3.10;3.10;;;23.30;63.00;;;;;;5087042;28;43623;-68
2023/06/18 05:11:09;;;;;;;3.50;3.40;;;23.40;62.50;;;;;;5086036;28;45705;-68
2023/06/18 05:13:39;;;;;;;3.30;3.20;;;23.40;62.60;;;;;;5085074;28;43418;-68
2023/06/18 05:16:09;;;;;;;2.80;2.80;;;23.30;62.90;;;;;;5086981;28;43446;-68
2023/06/18 05:18:38;;;;;;;3.00;3.00;;;23.20;63.20;;;;;;5084718;28;43538;-68
2023/06/18 05:21:09;;;;;;;3.10;3.10;;;23.20;63.10;;;;;;5079864;28;44073;-68
2023/06/18 05:23:37;;;;;;;3.00;3.00;;;23.20;63.20;;;;;;5085034;28;43933;-68
2023/06/18 05:26:05;;;;;;;3.50;3.40;;;23.20;63.40;;;;;;5084982;28;43367;-68
2023/06/18 05:28:33;;;;;;;3.30;3.20;;;23.10;63.50;;;;;;5087146;28;43383;-68
2023/06/18 05:31:02;;;;;;;2.93;2.93;;;23.10;63.80;;;;;;5084357;28;45934;-68
2023/06/18 05:33:36;;;;;;;3.50;3.40;;;23.10;63.60;;;;;;5086376;28;43360;-68
2023/06/18 05:36:06;;;;;;;3.17;3.17;;;23.10;63.60;;;;;;5086061;28;43415;-68
2023/06/18 05:38:34;;;;;;;2.83;2.83;;;23.10;64.00;;;;;;5087124;28;43942;-68
2023/06/18 05:41:03;;;;;;;3.10;3.10;;;23.00;64.20;;;;;;5087416;28;45589;-68
2023/06/18 05:43:32;;;;;;;3.07;3.07;;;23.10;64.10;;;;;;5086014;28;43340;-68
2023/06/18 05:46:02;;;;;;;3.37;3.17;;;23.20;63.90;;;;;;5086579;28;43459;-69
2023/06/18 05:48:30;;;;;;;2.87;2.87;;;23.30;63.60;;;;;;5083346;28;43540;-68
2023/06/18 05:51:18;;;;;;;3.00;3.00;;;23.30;62.90;;;;;;5086264;28;44983;-68
2023/06/18 05:53:46;;;;;;;3.40;3.40;;;23.40;62.50;;;;;;5104992;27;43915;-69
2023/06/18 05:56:15;;;;;;;2.93;2.93;;;23.30;62.40;;;;;;5082725;28;43425;-68
2023/06/18 05:58:43;;;;;;;3.23;3.13;;;23.30;62.70;;;;;;5085770;28;43458;-68
2023/06/18 06:01:11;;;;;;;3.17;3.10;;;23.20;63.30;;;;;;5079205;28;45901;-68
2023/06/18 06:03:39;;;;;;;3.13;3.03;;;23.20;64.10;;;;;;5087389;28;43454;-68
2023/06/18 06:06:08;;;;;;;3.17;3.13;;;23.20;63.00;;;;;;5114750;27;43385;-68
2023/06/18 06:08:37;;;;;;;3.00;3.00;;;23.10;63.10;;;;;;5084603;28;43477;-68
2023/06/18 06:11:09;;;;;;;2.97;2.87;;;23.10;64.00;;;;;;5085408;28;45475;-68
2023/06/18 06:13:38;;;;;;;3.27;3.17;;;23.10;63.80;;;;;;5085888;28;44973;-68
2023/06/18 06:16:10;;;;;;;3.10;3.00;;;23.10;63.70;;;;;;5079238;28;43571;-68
2023/06/18 06:18:38;;;;;;;2.80;2.80;;;23.00;63.60;;;;;;5082848;28;43820;-68
2023/06/18 06:21:06;;;;;;;3.40;3.30;;;23.00;64.20;;;;;;5086153;28;46025;-69
2023/06/18 06:23:34;;;;;;;3.10;3.10;;;23.00;64.30;;;;;;5081901;28;43406;-68
2023/06/18 06:26:04;;;;;;;3.30;3.20;;;23.10;64.00;;;;;;5086510;28;43434;-68
2023/06/18 06:28:32;;;;;;;3.30;3.20;;;23.20;63.10;;;;;;5084694;28;43744;-67
2023/06/18 06:31:00;;;;;;;3.03;3.03;;;23.20;62.80;;;;;;5102078;27;44629;-67
2023/06/18 06:33:29;;;;;;;3.37;3.27;;;23.20;62.20;;;;;;5083179;28;44892;-68
2023/06/18 06:35:57;;;;;;;3.40;3.30;;;23.10;63.20;;;;;;5084940;28;43446;-67
2023/06/18 06:38:25;;;;;;;3.00;2.90;;;23.20;63.30;;;;;;5083825;28;43576;-67
2023/06/18 06:40:53;;;;;;;3.40;3.30;;;23.10;62.80;;;;;;5082701;28;45667;-68
2023/06/18 06:43:27;;;;;;;3.27;3.20;;;23.10;62.50;;;;;;5080027;28;44885;-67
2023/06/18 06:46:10;;;;;;;3.40;3.30;;;23.10;63.40;;;;;;5116755;27;43480;-67
2023/06/18 06:48:56;;;;;;;3.47;3.37;;;23.10;64.00;;;;;;5085229;28;43549;-67
2023/06/18 06:51:35;;;;;;;3.00;3.00;;;23.10;64.40;;;;;;5084596;28;43527;-67
2023/06/18 06:54:13;;;;;;;3.20;3.13;;;23.20;63.40;;;;;;5084349;28;44851;-67
2023/06/18 06:56:41;;;;;;;3.40;3.30;;;23.20;63.00;;;;;;5083512;28;43430;-68
2023/06/18 06:59:11;;;;;;;3.17;3.07;;;23.20;62.40;;;;;;5086416;28;43518;-68
2023/06/18 07:01:40;;;;;;;3.43;3.33;;;23.10;63.60;;;;;;5085082;28;45713;-67
2023/06/18 07:04:08;;;;;;;3.20;3.20;;;23.10;63.40;;;;;;5085192;28;44754;-67
2023/06/18 07:06:38;;;;;;;3.00;2.90;;;23.10;62.70;;;;;;5087006;28;43379;-67
2023/06/18 07:09:06;;;;;;;3.60;3.50;;;23.10;63.00;;;;;;5086877;28;43519;-67
2023/06/18 07:11:36;;;;;;;3.50;3.40;;;23.00;63.50;;;;;;5087188;28;43735;-68
2023/06/18 07:14:04;;;;;;;3.70;3.60;;;23.00;64.00;;;;;;5085520;28;43534;-68
2023/06/18 07:16:34;;;;;;;3.30;3.20;;;23.10;63.80;;;;;;5085669;28;43414;-68
2023/06/18 07:19:02;;;;;;;3.33;3.20;;;23.10;63.40;;;;;;5084912;28;43518;-68
2023/06/18 07:21:30;;;;;;;3.20;3.20;;;23.20;63.30;;;;;;5083571;28;43606;-69
2023/06/18 07:23:58;;;;;;;3.47;3.37;;;23.10;62.60;;;;;;5084526;28;43415;-68
2023/06/18 07:26:26;;;;;;;3.73;3.63;;;23.10;63.50;;;;;;5085346;28;43426;-68
2023/06/18 07:28:53;;;;;;;3.10;3.10;;;23.10;63.50;;;;;;5086456;28;43516;-68
2023/06/18 07:31:21;;;;;;;3.57;3.47;;;23.10;62.90;;;;;;5085125;28;43603;-68
2023/06/18 07:33:51;;;;;;;3.40;3.30;;;23.10;63.10;;;;;;5084815;28;43393;-68
2023/06/18 07:36:21;;;;;;;3.53;3.37;;;23.10;63.90;;;;;;5086957;28;43442;-68
2023/06/18 07:38:49;;;;;;;3.60;3.50;;;23.00;64.00;;;;;;5082483;28;43451;-68
2023/06/18 07:41:17;;;;;;;3.50;3.40;;;23.00;63.70;;;;;;5085743;28;43771;-68
2023/06/18 07:43:45;;;;;;;3.57;3.47;;;23.00;63.90;;;;;;5080949;28;43716;-68
2023/06/18 07:46:13;;;;;;;3.50;3.40;;;23.00;64.00;;;;;;5082797;28;43485;-68
2023/06/18 07:48:41;;;;;;;3.60;3.50;;;22.90;64.50;;;;;;5081760;28;43431;-68
2023/06/18 07:51:11;;;;;;;3.67;3.57;;;23.00;64.30;;;;;;5083456;28;43608;-68
2023/06/18 07:53:39;;;;;;;3.20;3.00;;;23.00;64.00;;;;;;5086399;28;43314;-68
2023/06/18 07:56:07;;;;;;;3.33;3.23;;;22.90;64.10;;;;;;5086139;28;43394;-68
2023/06/18 07:58:35;;;;;;;3.40;3.30;;;22.90;64.50;;;;;;5085862;28;43462;-68
2023/06/18 08:01:03;;;;;;;3.50;3.40;;;22.90;64.50;;;;;;5085652;28;43938;-68
2023/06/18 08:03:31;;;;;;;3.27;3.17;;;23.00;64.30;;;;;;5086072;28;43394;-68
2023/06/18 08:05:59;;;;;;;3.37;3.27;;;23.10;64.00;;;;;;5085961;28;43414;-68
2023/06/18 08:08:29;;;;;;;3.17;3.17;;;23.20;63.70;;;;;;5086018;28;43494;-68
2023/06/18 08:10:57;;;;;;;3.30;3.20;;;23.30;63.40;;;;;;5084703;28;44587;-68
2023/06/18 08:13:25;;;;;;;3.23;3.10;;;23.20;63.20;;;;;;5085458;28;43498;-68
2023/06/18 08:15:53;;;;;;;3.30;3.20;;;23.20;63.30;;;;;;5086721;28;43524;-68
2023/06/18 08:18:21;;;;;;;3.40;3.30;;;23.10;64.00;;;;;;5086606;28;43382;-68
2023/06/18 08:20:49;;;;;;;3.63;3.53;;;23.10;64.00;;;;;;5086037;28;43704;-68
2023/06/18 08:23:17;;;;;;;3.50;3.40;;;23.10;63.90;;;;;;5086563;28;43461;-68
2023/06/18 08:25:46;;;;;;;3.47;3.37;;;23.00;64.00;;;;;;5085950;28;43435;-68
2023/06/18 08:28:14;;;;;;;3.40;3.30;;;23.00;64.40;;;;;;5086201;28;43398;-68
2023/06/18 08:30:42;;;;;;;3.43;3.33;;;23.00;64.60;;;;;;5085724;28;45148;-68
2023/06/18 08:33:10;;;;;;;3.37;3.27;;;23.00;64.60;;;;;;5085781;28;43312;-68
2023/06/18 08:35:38;;;;;;;3.10;3.10;;;23.00;64.60;;;;;;5085876;28;43432;-68
2023/06/18 08:38:06;;;;;;;3.50;3.40;;;22.90;64.50;;;;;;5083506;28;43381;-68
2023/06/18 08:40:36;;;;;;;3.13;3.10;;;22.90;64.90;;;;;;5085688;28;43606;-68
2023/06/18 08:43:09;;;;;;;3.33;3.23;;;22.90;64.70;;;;;;5085467;28;43636;-68
2023/06/18 08:45:37;;;;;;;3.30;3.20;;;23.10;64.50;;;;;;5086214;28;43393;-68
2023/06/18 08:48:06;;;;;;;3.33;3.30;;;23.20;64.00;;;;;;5086535;28;43593;-68
2023/06/18 08:50:58;;;;;;;3.50;3.40;;;23.20;63.70;;;;;;5082916;28;43825;-67
2023/06/18 08:53:30;;;;;;;3.60;3.40;;;23.20;63.90;;;;;;5085267;28;43514;-67
2023/06/18 08:55:58;;;;;;;3.43;3.33;;;23.20;64.10;;;;;;5086214;28;43469;-67
2023/06/18 08:58:28;;;;;;;3.20;3.10;;;23.10;64.50;;;;;;5085236;28;43581;-67
2023/06/18 09:00:58;;;;;;;3.10;3.10;;;23.10;64.60;;;;;;5085111;28;43630;-67
2023/06/18 09:03:26;;;;;;;2.93;2.93;;;23.10;64.70;;;;;;5085424;28;43447;-67
2023/06/18 09:05:54;;;;;;;3.57;3.27;;;23.00;64.60;;;;;;5084361;28;43435;-67
2023/06/18 09:08:22;;;;;;;3.00;3.00;;;23.00;64.70;;;;;;5086038;28;43442;-68
2023/06/18 09:10:50;;;;;;;3.20;3.10;;;23.00;65.10;;;;;;5084646;28;43890;-67
2023/06/18 09:13:18;;;;;;;3.10;3.10;;;23.00;65.20;;;;;;5082729;28;43481;-68
2023/06/18 09:15:47;;;;;;;3.30;3.20;;;22.90;64.90;;;;;;5084862;28;43403;-68
2023/06/18 09:18:16;;;;;;;3.37;3.27;;;22.90;64.70;;;;;;5085234;28;43556;-68
2023/06/18 09:20:43;;;;;;;3.27;3.17;;;22.90;65.40;;;;;;5084685;28;43771;-68
2023/06/18 09:23:12;;;;;;;2.90;2.90;;;22.90;65.30;;;;;;5117793;27;44994;-68
2023/06/18 09:25:40;;;;;;;2.97;2.97;;;23.00;65.10;;;;;;5084178;28;43430;-68
2023/06/18 09:28:08;;;;;;;3.13;3.03;;;23.20;64.80;;;;;;5085286;28;44060;-68
2023/06/18 09:30:36;;;;;;;3.00;2.90;;;23.20;64.30;;;;;;5084236;28;43851;-69
2023/06/18 09:33:05;;;;;;;3.00;3.00;;;23.30;64.50;;;;;;5084239;28;43405;-68
2023/06/18 09:35:33;;;;;;;3.27;3.17;;;23.30;64.50;;;;;;5084544;28;43477;-68
2023/06/18 09:38:08;;;;;;;3.07;3.07;;;23.20;64.50;;;;;;5084245;28;43344;-69
2023/06/18 09:40:36;;;;;;;2.90;2.90;;;23.10;65.10;;;;;;5082811;28;43670;-68
2023/06/18 09:43:05;;;;;;;3.00;2.90;;;23.10;65.10;;;;;;5076300;28;43879;-68
2023/06/18 09:45:33;;;;;;;2.83;2.83;;;23.10;65.10;;;;;;5083299;28;43452;-68
2023/06/18 09:48:01;;;;;;;3.20;3.10;;;23.10;64.90;;;;;;5081629;28;43584;-68
2023/06/18 09:50:32;;;;;;;2.70;2.70;;;23.00;65.30;;;;;;5080423;28;44124;-68
2023/06/18 09:53:00;;;;;;;2.80;2.80;;;23.00;65.60;;;;;;5079557;28;44782;-68
2023/06/18 09:55:29;;;;;;;2.60;2.60;;;23.00;65.50;;;;;;5080053;28;43562;-68
2023/06/18 09:57:58;;;;;;;2.97;2.97;;;23.00;65.70;;;;;;5084093;28;43435;-68
2023/06/18 10:00:26;;;;;;;2.73;2.73;;;23.00;65.10;;;;;;5080453;28;43771;-68
2023/06/18 10:02:54;;;;;;;3.10;3.00;;;23.00;65.80;;;;;;5083042;28;43759;-68
2023/06/18 10:05:22;;;;;;;3.00;3.00;;;23.00;65.90;;;;;;5082520;28;43604;-68
2023/06/18 10:07:52;;;;;;;2.77;2.77;;;23.10;65.50;;;;;;5082896;28;43561;-68
2023/06/18 10:10:20;;;;;;;2.90;2.90;;;23.20;65.00;;;;;;5082574;28;43607;-68
2023/06/18 10:12:49;;;;;;;2.70;2.70;;;23.30;65.00;;;;;;5082503;28;43430;-68
2023/06/18 10:15:17;;;;;;;3.27;3.17;;;23.30;64.90;;;;;;5083372;28;43485;-68
2023/06/18 10:17:47;;;;;;;2.73;2.73;;;23.30;64.80;;;;;;5082491;28;43445;-68
2023/06/18 10:20:16;;;;;;;2.70;2.67;;;23.20;64.60;;;;;;5085040;28;43857;-68
2023/06/18 10:22:46;;;;;;;2.80;2.80;;;23.20;65.20;;;;;;5083841;28;43438;-68
2023/06/18 10:25:16;;;;;;;3.00;2.90;;;23.10;65.20;;;;;;5083600;28;43471;-68
2023/06/18 10:27:44;;;;;;;2.57;2.57;;;23.10;65.20;;;;;;5082885;28;43477;-68
2023/06/18 10:30:12;;;;;;;2.80;2.80;;;23.10;64.80;;;;;;5083262;28;44028;-68
2023/06/18 10:32:42;;;;;;;2.83;2.83;;;23.00;65.50;;;;;;5083461;28;43471;-68
2023/06/18 10:35:11;;;;;;;2.80;2.80;;;23.00;65.60;;;;;;5083813;28;43401;-68
2023/06/18 10:37:39;;;;;;;2.80;2.80;;;23.00;65.50;;;;;;5083505;28;43446;-68
2023/06/18 10:40:08;;;;;;;3.00;2.83;;;23.00;65.00;;;;;;5083997;28;43942;-68
2023/06/18 10:42:37;;;;;;;2.53;2.53;;;23.00;65.50;;;;;;5084098;28;43726;-68
2023/06/18 10:45:12;;;;;;;2.90;2.73;;;23.00;65.90;;;;;;5081467;28;43420;-68
2023/06/18 10:47:41;;;;;;;2.90;2.70;;;23.10;65.80;;;;;;5084633;28;43479;-68
2023/06/18 10:50:13;;;;;;;2.73;2.73;;;23.10;65.50;;;;;;5083370;28;44178;-68
2023/06/18 10:52:42;;;;;;;2.60;2.60;;;23.30;65.20;;;;;;5084091;28;43767;-68
2023/06/18 10:55:11;;;;;;;3.00;3.00;;;23.30;65.70;;;;;;5083946;28;43391;-68
2023/06/18 10:57:41;;;;;;;2.57;2.57;;;23.30;64.80;;;;;;5083268;28;43577;-68
2023/06/18 11:00:19;;;;;;;2.50;2.50;;;23.30;64.80;;;;;;5071680;28;43667;-69
2023/06/18 11:02:49;;;;;;;2.47;2.47;;;23.20;65.10;;;;;;5063776;28;43613;-69
2023/06/18 11:05:45;;;;;;;2.50;2.50;;;23.20;65.40;;;;;;5064109;28;43457;-68
2023/06/18 11:08:14;;;;;;;2.70;2.70;;;23.20;65.30;;;;;;5062363;28;43640;-68
2023/06/18 11:10:45;;;;;;;2.60;2.60;;;23.10;65.10;;;;;;5064408;28;43635;-68
2023/06/18 11:13:14;;;;;;;2.80;2.80;;;23.10;65.40;;;;;;5064837;28;43537;-69
2023/06/18 11:15:58;;;;;;;2.70;2.70;;;23.10;65.90;;;;;;5063615;28;44005;-68
2023/06/18 11:18:26;;;;;;;3.07;3.07;;;23.10;65.70;;;;;;5065029;28;43427;-69
2023/06/18 11:20:55;;;;;;;2.70;2.70;;;23.00;65.30;;;;;;5062486;28;45925;-69
2023/06/18 11:23:23;;;;;;;2.57;2.57;;;23.00;65.20;;;;;;5063035;28;44994;-69
2023/06/18 11:25:51;;;;;;;2.60;2.50;;;23.00;65.80;;;;;;5064080;28;43423;-69
2023/06/18 11:28:23;;;;;;;2.40;2.40;;;23.10;65.80;;;;;;5063817;28;43593;-68
2023/06/18 11:30:53;;;;;;;2.60;2.60;;;23.10;65.50;;;;;;5064675;28;43607;-69
2023/06/18 11:33:22;;;;;;;2.90;2.80;;;23.30;65.30;;;;;;5079011;28;45172;-69
2023/06/18 11:35:50;;;;;;;2.67;2.67;;;23.30;65.00;;;;;;5063538;28;43667;-69
2023/06/18 11:38:18;;;;;;;2.80;2.80;;;23.40;65.00;;;;;;5063046;28;43479;-69
2023/06/18 11:40:50;;;;;;;2.73;2.63;;;23.40;64.80;;;;;;5060628;28;43902;-71
2023/06/18 11:43:18;;;;;;;2.83;2.73;;;23.30;64.90;;;;;;5063692;28;43552;-69
2023/06/18 11:45:49;;;;;;;3.00;2.97;;;23.20;65.40;;;;;;5062642;28;43514;-69
2023/06/18 11:48:17;;;;;;;2.57;2.57;;;23.30;65.50;;;;;;5096239;27;43447;-69
2023/06/18 11:50:47;;;;;;;2.60;2.60;;;23.20;65.30;;;;;;5063405;28;43626;-69
2023/06/18 11:53:15;;;;;;;2.67;2.67;;;23.10;65.20;;;;;;5063188;28;43558;-69
2023/06/18 11:55:43;;;;;;;2.90;2.90;;;23.10;65.80;;;;;;5063972;28;43462;-69
2023/06/18 11:58:11;;;;;;;2.70;2.70;;;23.10;65.80;;;;;;5063429;28;44494;-70
2023/06/18 12:00:40;;;;;;;3.03;2.93;;;23.10;65.50;;;;;;5063128;28;43767;-69
2023/06/18 12:03:09;;;;;;;2.67;2.67;;;23.10;65.40;;;;;;5063560;28;44024;-69
2023/06/18 12:05:37;;;;;;;3.03;2.93;;;23.10;65.60;;;;;;5064765;28;43519;-69
2023/06/18 12:08:09;;;;;;;2.90;2.90;;;23.10;66.00;;;;;;5059535;28;44083;-69
2023/06/18 12:10:38;;;;;;;2.50;2.50;;;23.10;65.80;;;;;;5066520;28;43595;-69
2023/06/18 12:13:09;;;;;;;3.27;3.07;;;23.20;65.60;;;;;;5065944;28;43979;-69
2023/06/18 12:15:40;;;;;;;3.03;2.93;;;23.30;65.20;;;;;;5065773;28;43470;-69
2023/06/18 12:18:11;;;;;;;2.70;2.70;;;23.40;65.20;;;;;;5062335;28;43410;-69
2023/06/18 12:20:39;;;;;;;2.70;2.70;;;23.40;65.00;;;;;;5066445;28;43619;-69
2023/06/18 12:23:07;;;;;;;3.10;3.00;;;23.40;64.80;;;;;;5068878;28;43974;-69
2023/06/18 12:25:35;;;;;;;2.90;2.80;;;23.30;65.10;;;;;;5064308;28;43415;-69
2023/06/18 12:28:04;;;;;;;2.70;2.70;;;23.30;65.50;;;;;;5067167;28;43454;-69
2023/06/18 12:30:33;;;;;;;2.70;2.70;;;23.30;65.40;;;;;;5066130;28;43614;-69
2023/06/18 12:33:02;;;;;;;2.90;2.80;;;23.20;65.10;;;;;;5064022;28;43460;-69
2023/06/18 12:35:32;;;;;;;2.60;2.60;;;23.20;65.10;;;;;;5062635;28;43389;-69
2023/06/18 12:38:04;;;;;;;2.60;2.60;;;23.10;65.70;;;;;;5093577;27;44119;-69
2023/06/18 12:40:33;;;;;;;2.93;2.93;;;23.20;65.70;;;;;;5068164;28;43619;-70
2023/06/18 12:43:07;;;;;;;2.80;2.80;;;23.10;65.40;;;;;;5066680;28;43530;-69
2023/06/18 12:45:35;;;;;;;2.77;2.77;;;23.10;65.20;;;;;;5069141;28;43461;-69
2023/06/18 12:48:10;;;;;;;2.80;2.80;;;23.10;66.00;;;;;;5067863;28;43514;-69
2023/06/18 12:50:44;;;;;;;3.00;2.80;;;23.10;66.00;;;;;;5065743;28;43762;-69
2023/06/18 12:53:14;;;;;;;2.90;2.80;;;23.10;65.70;;;;;;5068719;28;44031;-69
2023/06/18 12:55:45;;;;;;;2.73;2.73;;;23.10;65.40;;;;;;5069640;28;43414;-69
2023/06/18 12:58:18;;;;;;;2.73;2.63;;;23.10;65.80;;;;;;5068349;28;43370;-69
2023/06/18 13:00:46;;;;;;;2.90;2.90;;;23.10;66.10;;;;;;5068429;28;43608;-69